sensor_id;sensor_type;location;lat;lon;timestamp;pressure;altitude;pressure_sealevel;temperature;humidity
75298;BME280;63896;45.990;18.688;2023-07-20T00:00:30;100146.38;;;19.10;100.00
75298;BME280;63896;45.990;18.688;2023-07-20T00:03:36;100137.81;;;19.03;100.00
75298;BME280;63896;45.990;18.688;2023-07-20T00:06:39;100145.38;;;18.96;100.00
75298;BME280;63896;45.990;18.688;2023-07-20T00:09:45;100133.75;;;19.06;100.00
75298;BME280;63896;45.990;18.688;2023-07-20T00:12:48;100128.09;;;19.07;100.00
75298;BME280;63896;45.990;18.688;2023-07-20T00:15:52;100125.44;;;18.97;100.00
75298;BME280;63896;45.990;18.688;2023-07-20T00:18:55;100131.38;;;18.94;100.00
75298;BME280;63896;45.990;18.688;2023-07-20T00:21:58;100133.56;;;18.87;100.00
75298;BME280;63896;45.990;18.688;2023-07-20T00:25:02;100122.00;;;18.86;100.00
75298;BME280;63896;45.990;18.688;2023-07-20T00:28:05;100108.31;;;18.83;100.00
75298;BME280;63896;45.990;18.688;2023-07-20T00:31:08;100102.94;;;18.83;100.00
75298;BME280;63896;45.990;18.688;2023-07-20T00:34:11;100099.69;;;18.81;100.00
75298;BME280;63896;45.990;18.688;2023-07-20T00:37:15;100107.50;;;18.77;100.00
75298;BME280;63896;45.990;18.688;2023-07-20T00:40:18;100100.25;;;18.78;100.00
75298;BME280;63896;45.990;18.688;2023-07-20T00:43:25;100102.94;;;18.78;100.00
75298;BME280;63896;45.990;18.688;2023-07-20T00:46:29;100103.19;;;18.86;100.00
75298;BME280;63896;45.990;18.688;2023-07-20T00:49:33;100106.13;;;18.85;100.00
75298;BME280;63896;45.990;18.688;2023-07-20T00:52:37;100109.91;;;18.84;100.00
75298;BME280;63896;45.990;18.688;2023-07-20T00:55:41;100102.13;;;18.82;100.00
75298;BME280;63896;45.990;18.688;2023-07-20T00:58:45;100098.63;;;18.82;100.00
75298;BME280;63896;45.990;18.688;2023-07-20T01:01:49;100094.06;;;18.77;100.00
75298;BME280;63896;45.990;18.688;2023-07-20T01:04:52;100083.03;;;18.84;100.00
75298;BME280;63896;45.990;18.688;2023-07-20T01:07:58;100087.06;;;18.86;100.00
75298;BME280;63896;45.990;18.688;2023-07-20T01:11:11;100081.69;;;18.81;100.00
75298;BME280;63896;45.990;18.688;2023-07-20T01:14:16;100077.88;;;18.92;100.00
75298;BME280;63896;45.990;18.688;2023-07-20T01:17:20;100065.47;;;19.01;100.00
75298;BME280;63896;45.990;18.688;2023-07-20T01:20:23;100071.16;;;18.95;100.00
75298;BME280;63896;45.990;18.688;2023-07-20T01:33:31;100112.47;;;19.09;100.00
75298;BME280;63896;45.990;18.688;2023-07-20T01:36:37;100121.06;;;19.16;100.00
75298;BME280;63896;45.990;18.688;2023-07-20T01:39:41;100129.22;;;18.96;100.00
75298;BME280;63896;45.990;18.688;2023-07-20T01:42:47;100132.19;;;18.89;100.00
75298;BME280;63896;45.990;18.688;2023-07-20T01:45:50;100139.75;;;18.87;100.00
75298;BME280;63896;45.990;18.688;2023-07-20T01:48:53;100143.25;;;18.88;100.00
75298;BME280;63896;45.990;18.688;2023-07-20T01:51:56;100137.91;;;18.73;100.00
75298;BME280;63896;45.990;18.688;2023-07-20T01:55:00;100132.56;;;18.68;100.00
75298;BME280;63896;45.990;18.688;2023-07-20T01:58:05;100139.25;;;18.65;100.00
75298;BME280;63896;45.990;18.688;2023-07-20T02:01:09;100142.75;;;18.71;100.00
75298;BME280;63896;45.990;18.688;2023-07-20T02:04:12;100157.00;;;18.76;100.00
75298;BME280;63896;45.990;18.688;2023-07-20T02:07:15;100172.88;;;18.73;100.00
75298;BME280;63896;45.990;18.688;2023-07-20T02:10:19;100185.75;;;18.71;100.00
75298;BME280;63896;45.990;18.688;2023-07-20T02:13:22;100195.41;;;18.77;100.00
75298;BME280;63896;45.990;18.688;2023-07-20T02:16:24;100204.81;;;18.84;100.00
75298;BME280;63896;45.990;18.688;2023-07-20T02:19:29;100208.03;;;18.86;100.00
75298;BME280;63896;45.990;18.688;2023-07-20T02:22:32;100216.09;;;18.91;100.00
75298;BME280;63896;45.990;18.688;2023-07-20T02:25:36;100219.59;;;18.92;100.00
75298;BME280;63896;45.990;18.688;2023-07-20T02:28:43;100222.25;;;18.97;100.00
75298;BME280;63896;45.990;18.688;2023-07-20T02:31:47;100229.75;;;19.00;100.00
75298;BME280;63896;45.990;18.688;2023-07-20T02:34:51;100233.50;;;19.09;100.00
75298;BME280;63896;45.990;18.688;2023-07-20T02:37:54;100216.56;;;19.14;100.00
75298;BME280;63896;45.990;18.688;2023-07-20T02:40:57;100209.81;;;19.16;100.00
75298;BME280;63896;45.990;18.688;2023-07-20T02:44:00;100213.53;;;19.30;100.00
75298;BME280;63896;45.990;18.688;2023-07-20T02:47:04;100214.03;;;19.42;100.00
75298;BME280;63896;45.990;18.688;2023-07-20T02:50:08;100218.06;;;19.45;100.00
75298;BME280;63896;45.990;18.688;2023-07-20T02:53:14;100212.38;;;19.57;100.00
75298;BME280;63896;45.990;18.688;2023-07-20T02:56:17;100195.91;;;19.63;100.00
75298;BME280;63896;45.990;18.688;2023-07-20T02:59:22;100187.50;;;19.70;100.00
75298;BME280;63896;45.990;18.688;2023-07-20T03:02:31;100182.94;;;19.70;100.00
75298;BME280;63896;45.990;18.688;2023-07-20T03:05:35;100169.47;;;19.70;100.00
75298;BME280;63896;45.990;18.688;2023-07-20T03:08:41;100188.84;;;19.72;100.00
75298;BME280;63896;45.990;18.688;2023-07-20T03:11:50;100194.81;;;19.69;100.00
75298;BME280;63896;45.990;18.688;2023-07-20T03:14:54;100201.75;;;19.75;100.00
75298;BME280;63896;45.990;18.688;2023-07-20T03:17:59;100195.81;;;19.78;100.00
75298;BME280;63896;45.990;18.688;2023-07-20T03:21:04;100193.41;;;19.77;100.00
75298;BME280;63896;45.990;18.688;2023-07-20T03:24:10;100192.84;;;19.80;100.00
75298;BME280;63896;45.990;18.688;2023-07-20T03:27:13;100188.78;;;19.82;100.00
75298;BME280;63896;45.990;18.688;2023-07-20T03:30:16;100192.03;;;19.79;100.00
75298;BME280;63896;45.990;18.688;2023-07-20T03:33:19;100199.53;;;19.82;100.00
75298;BME280;63896;45.990;18.688;2023-07-20T03:36:22;100201.44;;;19.82;100.00
75298;BME280;63896;45.990;18.688;2023-07-20T03:39:25;100195.78;;;19.83;100.00
75298;BME280;63896;45.990;18.688;2023-07-20T03:42:29;100206.25;;;19.85;100.00
75298;BME280;63896;45.990;18.688;2023-07-20T03:45:32;100209.50;;;19.82;100.00
75298;BME280;63896;45.990;18.688;2023-07-20T03:48:36;100209.50;;;19.82;100.00
75298;BME280;63896;45.990;18.688;2023-07-20T03:51:40;100204.66;;;19.84;100.00
75298;BME280;63896;45.990;18.688;2023-07-20T03:54:45;100209.75;;;19.85;100.00
75298;BME280;63896;45.990;18.688;2023-07-20T03:57:48;100215.44;;;19.84;100.00
75298;BME280;63896;45.990;18.688;2023-07-20T04:00:53;100220.75;;;19.89;100.00
75298;BME280;63896;45.990;18.688;2023-07-20T04:03:56;100225.06;;;19.90;100.00
75298;BME280;63896;45.990;18.688;2023-07-20T04:07:00;100229.13;;;19.92;100.00
75298;BME280;63896;45.990;18.688;2023-07-20T04:10:03;100214.28;;;19.95;100.00
75298;BME280;63896;45.990;18.688;2023-07-20T04:13:07;100218.59;;;19.96;100.00
75298;BME280;63896;45.990;18.688;2023-07-20T04:16:10;100220.41;;;20.01;100.00
75298;BME280;63896;45.990;18.688;2023-07-20T04:19:13;100224.47;;;19.98;100.00
75298;BME280;63896;45.990;18.688;2023-07-20T04:22:16;100229.88;;;19.98;100.00
75298;BME280;63896;45.990;18.688;2023-07-20T04:25:19;100237.69;;;20.00;100.00
75298;BME280;63896;45.990;18.688;2023-07-20T04:28:24;100221.22;;;20.01;100.00
75298;BME280;63896;45.990;18.688;2023-07-20T04:31:28;100236.84;;;20.04;100.00
75298;BME280;63896;45.990;18.688;2023-07-20T04:34:31;100243.78;;;20.10;100.00
75298;BME280;63896;45.990;18.688;2023-07-20T04:37:34;100245.66;;;20.15;100.00
75298;BME280;63896;45.990;18.688;2023-07-20T04:40:38;100243.44;;;20.22;100.00
75298;BME280;63896;45.990;18.688;2023-07-20T04:43:42;100243.94;;;20.29;100.00
75298;BME280;63896;45.990;18.688;2023-07-20T04:46:47;100243.38;;;20.32;100.00
75298;BME280;63896;45.990;18.688;2023-07-20T04:49:50;100242.56;;;20.31;100.00
75298;BME280;63896;45.990;18.688;2023-07-20T04:52:55;100243.94;;;20.29;100.00
75298;BME280;63896;45.990;18.688;2023-07-20T04:55:59;100244.16;;;20.37;100.00
75298;BME280;63896;45.990;18.688;2023-07-20T04:59:03;100239.00;;;20.41;100.00
75298;BME280;63896;45.990;18.688;2023-07-20T05:02:11;100250.03;;;20.44;100.00
75298;BME280;63896;45.990;18.688;2023-07-20T05:05:15;100245.94;;;20.47;100.00
75298;BME280;63896;45.990;18.688;2023-07-20T05:08:18;100252.38;;;20.51;100.00
75298;BME280;63896;45.990;18.688;2023-07-20T05:11:22;100249.94;;;20.55;100.00
75298;BME280;63896;45.990;18.688;2023-07-20T05:14:29;100253.66;;;20.59;100.00
75298;BME280;63896;45.990;18.688;2023-07-20T05:17:32;100257.16;;;20.59;100.00
75298;BME280;63896;45.990;18.688;2023-07-20T05:20:37;100265.72;;;20.66;100.00
75298;BME280;63896;45.990;18.688;2023-07-20T05:23:40;100264.81;;;20.81;100.00
75298;BME280;63896;45.990;18.688;2023-07-20T05:26:44;100270.38;;;20.89;100.00
75298;BME280;63896;45.990;18.688;2023-07-20T05:29:47;100261.84;;;21.06;100.00
75298;BME280;63896;45.990;18.688;2023-07-20T05:32:54;100266.78;;;20.99;100.00
75298;BME280;63896;45.990;18.688;2023-07-20T05:35:57;100248.25;;;21.16;100.00
75298;BME280;63896;45.990;18.688;2023-07-20T05:39:02;100250.03;;;21.26;100.00
75298;BME280;63896;45.990;18.688;2023-07-20T05:42:05;100255.78;;;21.19;100.00
75298;BME280;63896;45.990;18.688;2023-07-20T05:45:09;100255.53;;;21.39;100.00
75298;BME280;63896;45.990;18.688;2023-07-20T05:48:12;100257.69;;;21.43;100.00
75298;BME280;63896;45.990;18.688;2023-07-20T05:51:20;100253.31;;;21.47;100.00
75298;BME280;63896;45.990;18.688;2023-07-20T05:54:24;100239.41;;;21.58;100.00
75298;BME280;63896;45.990;18.688;2023-07-20T05:57:28;100247.91;;;21.47;100.00
75298;BME280;63896;45.990;18.688;2023-07-20T06:00:31;100254.69;;;21.63;100.00
75298;BME280;63896;45.990;18.688;2023-07-20T06:03:39;100247.56;;;21.72;100.00
75298;BME280;63896;45.990;18.688;2023-07-20T06:06:46;100250.38;;;22.04;100.00
75298;BME280;63896;45.990;18.688;2023-07-20T06:09:49;100257.09;;;22.07;100.00
75298;BME280;63896;45.990;18.688;2023-07-20T06:12:52;100259.56;;;22.22;100.00
75298;BME280;63896;45.990;18.688;2023-07-20T06:15:55;100252.34;;;22.17;100.00
75298;BME280;63896;45.990;18.688;2023-07-20T06:19:01;100252.25;;;22.22;100.00
75298;BME280;63896;45.990;18.688;2023-07-20T06:22:04;100250.06;;;22.24;100.00
75298;BME280;63896;45.990;18.688;2023-07-20T06:25:09;100254.78;;;22.32;100.00
75298;BME280;63896;45.990;18.688;2023-07-20T06:28:12;100261.16;;;22.74;100.00
75298;BME280;63896;45.990;18.688;2023-07-20T06:31:16;100264.22;;;23.41;99.57
75298;BME280;63896;45.990;18.688;2023-07-20T06:34:19;100262.16;;;23.87;96.58
75298;BME280;63896;45.990;18.688;2023-07-20T06:37:30;100249.78;;;24.31;94.13
75298;BME280;63896;45.990;18.688;2023-07-20T06:40:32;100246.22;;;24.44;92.89
75298;BME280;63896;45.990;18.688;2023-07-20T06:43:35;100250.25;;;24.77;90.82
75298;BME280;63896;45.990;18.688;2023-07-20T06:46:41;100251.91;;;25.18;87.54
75298;BME280;63896;45.990;18.688;2023-07-20T06:49:44;100258.91;;;25.58;85.98
75298;BME280;63896;45.990;18.688;2023-07-20T06:52:47;100256.19;;;25.58;86.18
75298;BME280;63896;45.990;18.688;2023-07-20T06:55:50;100268.19;;;25.66;86.58
75298;BME280;63896;45.990;18.688;2023-07-20T06:58:53;100260.81;;;25.57;84.26
75298;BME280;63896;45.990;18.688;2023-07-20T07:01:56;100257.00;;;25.67;85.24
75298;BME280;63896;45.990;18.688;2023-07-20T07:04:59;100268.06;;;25.96;83.68
75298;BME280;63896;45.990;18.688;2023-07-20T07:08:20;100264.53;;;26.04;77.72
75298;BME280;63896;45.990;18.688;2023-07-20T07:11:23;100256.84;;;26.15;76.36
75298;BME280;63896;45.990;18.688;2023-07-20T07:14:27;100262.56;;;26.74;74.48
75298;BME280;63896;45.990;18.688;2023-07-20T07:17:34;100267.88;;;27.17;73.30
75298;BME280;63896;45.990;18.688;2023-07-20T07:20:39;100263.31;;;27.38;72.37
75298;BME280;63896;45.990;18.688;2023-07-20T07:23:43;100265.88;;;28.14;69.48
75298;BME280;63896;45.990;18.688;2023-07-20T07:26:46;100268.66;;;29.04;65.52
75298;BME280;63896;45.990;18.688;2023-07-20T07:29:49;100262.53;;;29.19;64.83
75298;BME280;63896;45.990;18.688;2023-07-20T07:32:52;100258.25;;;28.73;66.86
75298;BME280;63896;45.990;18.688;2023-07-20T07:35:55;100267.06;;;29.03;66.20
75298;BME280;63896;45.990;18.688;2023-07-20T07:39:00;100266.59;;;29.73;63.70
75298;BME280;63896;45.990;18.688;2023-07-20T07:42:23;100265.94;;;29.28;64.32
75298;BME280;63896;45.990;18.688;2023-07-20T07:45:26;100268.88;;;30.51;60.43
75298;BME280;63896;45.990;18.688;2023-07-20T07:48:29;100261.19;;;32.01;52.81
75298;BME280;63896;45.990;18.688;2023-07-20T07:51:33;100257.31;;;32.64;52.58
75298;BME280;63896;45.990;18.688;2023-07-20T07:54:35;100270.69;;;33.33;50.62
75298;BME280;63896;45.990;18.688;2023-07-20T07:57:38;100265.72;;;32.93;49.25
75298;BME280;63896;45.990;18.688;2023-07-20T08:00:45;100265.28;;;33.93;44.33
75298;BME280;63896;45.990;18.688;2023-07-20T08:03:53;100262.00;;;34.14;41.53
75298;BME280;63896;45.990;18.688;2023-07-20T08:06:57;100274.81;;;32.97;40.65
75298;BME280;63896;45.990;18.688;2023-07-20T08:10:05;100264.44;;;34.92;39.66
75298;BME280;63896;45.990;18.688;2023-07-20T08:13:15;100261.50;;;35.15;38.51
75298;BME280;63896;45.990;18.688;2023-07-20T08:16:27;100267.44;;;35.79;38.45
75298;BME280;63896;45.990;18.688;2023-07-20T08:19:36;100261.59;;;35.88;36.55
75298;BME280;63896;45.990;18.688;2023-07-20T08:22:42;100268.09;;;34.30;39.19
75298;BME280;63896;45.990;18.688;2023-07-20T08:25:47;100265.53;;;35.28;38.96
75298;BME280;63896;45.990;18.688;2023-07-20T08:28:54;100266.25;;;35.80;37.29
75298;BME280;63896;45.990;18.688;2023-07-20T08:32:06;100269.91;;;36.02;36.36
75298;BME280;63896;45.990;18.688;2023-07-20T08:35:09;100257.47;;;36.57;34.40
75298;BME280;63896;45.990;18.688;2023-07-20T08:38:12;100263.84;;;36.97;35.83
75298;BME280;63896;45.990;18.688;2023-07-20T08:41:15;100269.34;;;37.46;30.60
75298;BME280;63896;45.990;18.688;2023-07-20T08:44:20;100268.47;;;37.85;29.48
75298;BME280;63896;45.990;18.688;2023-07-20T08:47:25;100269.97;;;38.14;29.30
75298;BME280;63896;45.990;18.688;2023-07-20T08:50:30;100268.91;;;36.42;29.46
75298;BME280;63896;45.990;18.688;2023-07-20T08:53:33;100260.16;;;37.85;28.70
75298;BME280;63896;45.990;18.688;2023-07-20T08:56:40;100256.19;;;37.93;28.54
75298;BME280;63896;45.990;18.688;2023-07-20T08:59:43;100261.72;;;37.89;29.21
75298;BME280;63896;45.990;18.688;2023-07-20T09:02:49;100258.81;;;38.25;28.61
75298;BME280;63896;45.990;18.688;2023-07-20T09:05:54;100260.94;;;38.03;29.27
75298;BME280;63896;45.990;18.688;2023-07-20T09:09:00;100256.75;;;39.01;27.86
75298;BME280;63896;45.990;18.688;2023-07-20T09:12:03;100254.88;;;38.91;27.63
75298;BME280;63896;45.990;18.688;2023-07-20T09:15:10;100248.66;;;38.73;28.65
75298;BME280;63896;45.990;18.688;2023-07-20T09:18:26;100258.13;;;38.76;27.64
75298;BME280;63896;45.990;18.688;2023-07-20T09:21:30;100269.09;;;38.35;27.20
75298;BME280;63896;45.990;18.688;2023-07-20T09:24:34;100263.53;;;38.97;26.78
75298;BME280;63896;45.990;18.688;2023-07-20T09:27:48;100266.19;;;39.52;25.51
75298;BME280;63896;45.990;18.688;2023-07-20T09:30:56;100262.91;;;39.64;26.87
75298;BME280;63896;45.990;18.688;2023-07-20T09:34:00;100261.56;;;38.94;27.28
75298;BME280;63896;45.990;18.688;2023-07-20T09:37:03;100263.66;;;39.27;27.32
75298;BME280;63896;45.990;18.688;2023-07-20T09:40:09;100260.81;;;38.90;26.99
75298;BME280;63896;45.990;18.688;2023-07-20T09:43:16;100261.78;;;37.79;29.12
75298;BME280;63896;45.990;18.688;2023-07-20T09:46:22;100255.78;;;37.98;29.68
75298;BME280;63896;45.990;18.688;2023-07-20T09:49:28;100251.06;;;38.68;28.24
75298;BME280;63896;45.990;18.688;2023-07-20T09:52:56;100244.28;;;38.72;28.47
75298;BME280;63896;45.990;18.688;2023-07-20T09:56:02;100239.00;;;39.70;27.80
75298;BME280;63896;45.990;18.688;2023-07-20T09:59:06;100239.91;;;39.60;26.34
75298;BME280;63896;45.990;18.688;2023-07-20T10:02:25;100240.53;;;39.00;28.06
75298;BME280;63896;45.990;18.688;2023-07-20T10:05:36;100242.69;;;39.94;26.96
75298;BME280;63896;45.990;18.688;2023-07-20T10:08:42;100235.19;;;40.75;25.29
75298;BME280;63896;45.990;18.688;2023-07-20T10:11:51;100241.06;;;40.57;26.24
75298;BME280;63896;45.990;18.688;2023-07-20T10:15:41;100237.63;;;39.89;25.89
75298;BME280;63896;45.990;18.688;2023-07-20T10:22:14;100225.78;;;40.92;26.03
75298;BME280;63896;45.990;18.688;2023-07-20T10:25:24;100242.47;;;40.42;24.29
75298;BME280;63896;45.990;18.688;2023-07-20T10:28:28;100236.03;;;39.54;25.26
75298;BME280;63896;45.990;18.688;2023-07-20T10:31:32;100237.72;;;40.12;24.95
75298;BME280;63896;45.990;18.688;2023-07-20T10:34:38;100237.63;;;40.73;24.47
75298;BME280;63896;45.990;18.688;2023-07-20T10:40:56;100229.09;;;40.83;24.00
75298;BME280;63896;45.990;18.688;2023-07-20T10:44:02;100233.78;;;41.56;23.87
75298;BME280;63896;45.990;18.688;2023-07-20T10:47:18;100232.63;;;42.13;23.11
75298;BME280;63896;45.990;18.688;2023-07-20T10:50:21;100230.28;;;43.41;21.61
75298;BME280;63896;45.990;18.688;2023-07-20T10:53:25;100225.03;;;42.82;22.77
75298;BME280;63896;45.990;18.688;2023-07-20T10:56:28;100222.25;;;43.27;21.72
75298;BME280;63896;45.990;18.688;2023-07-20T11:02:48;100221.56;;;42.78;22.47
75298;BME280;63896;45.990;18.688;2023-07-20T11:05:53;100215.16;;;41.30;23.49
75298;BME280;63896;45.990;18.688;2023-07-20T11:09:09;100219.66;;;41.47;23.89
75298;BME280;63896;45.990;18.688;2023-07-20T11:12:17;100215.72;;;41.84;23.16
75298;BME280;63896;45.990;18.688;2023-07-20T11:15:20;100212.72;;;42.11;22.20
75298;BME280;63896;45.990;18.688;2023-07-20T11:18:27;100214.50;;;41.22;23.70
75298;BME280;63896;45.990;18.688;2023-07-20T11:21:36;100207.31;;;42.04;23.75
75298;BME280;63896;45.990;18.688;2023-07-20T11:24:56;100208.91;;;42.05;22.88
75298;BME280;63896;45.990;18.688;2023-07-20T11:28:00;100209.94;;;42.47;23.30
75298;BME280;63896;45.990;18.688;2023-07-20T11:31:03;100202.19;;;42.87;22.22
75298;BME280;63896;45.990;18.688;2023-07-20T11:34:09;100196.59;;;42.54;22.06
75298;BME280;63896;45.990;18.688;2023-07-20T11:37:14;100202.63;;;40.22;25.00
75298;BME280;63896;45.990;18.688;2023-07-20T11:40:17;100191.38;;;39.38;25.46
75298;BME280;63896;45.990;18.688;2023-07-20T11:43:20;100190.03;;;39.12;26.19
75298;BME280;63896;45.990;18.688;2023-07-20T11:46:28;100188.69;;;40.49;24.48
75298;BME280;63896;45.990;18.688;2023-07-20T11:49:43;100190.06;;;41.53;22.43
75298;BME280;63896;45.990;18.688;2023-07-20T11:52:46;100191.56;;;42.13;20.70
75298;BME280;63896;45.990;18.688;2023-07-20T11:55:50;100182.38;;;41.97;20.93
75298;BME280;63896;45.990;18.688;2023-07-20T11:59:00;100181.78;;;42.73;19.64
75298;BME280;63896;45.990;18.688;2023-07-20T12:02:06;100196.03;;;43.08;18.93
75298;BME280;63896;45.990;18.688;2023-07-20T12:05:11;100181.06;;;42.86;19.42
75298;BME280;63896;45.990;18.688;2023-07-20T12:08:17;100183.78;;;42.73;19.05
75298;BME280;63896;45.990;18.688;2023-07-20T12:11:36;100188.00;;;43.80;18.60
75298;BME280;63896;45.990;18.688;2023-07-20T12:14:39;100177.09;;;43.86;18.43
75298;BME280;63896;45.990;18.688;2023-07-20T12:17:46;100177.84;;;41.47;20.59
75298;BME280;63896;45.990;18.688;2023-07-20T12:20:59;100179.75;;;41.70;20.06
75298;BME280;63896;45.990;18.688;2023-07-20T12:24:06;100171.91;;;40.02;22.50
75298;BME280;63896;45.990;18.688;2023-07-20T12:27:13;100168.06;;;39.62;22.92
75298;BME280;63896;45.990;18.688;2023-07-20T12:30:17;100165.34;;;41.55;21.23
75298;BME280;63896;45.990;18.688;2023-07-20T12:33:20;100166.41;;;41.42;21.62
75298;BME280;63896;45.990;18.688;2023-07-20T12:36:23;100164.06;;;42.48;20.13
75298;BME280;63896;45.990;18.688;2023-07-20T12:39:28;100159.00;;;42.59;20.26
75298;BME280;63896;45.990;18.688;2023-07-20T12:42:32;100160.91;;;42.46;19.63
75298;BME280;63896;45.990;18.688;2023-07-20T12:45:35;100152.53;;;42.62;20.08
75298;BME280;63896;45.990;18.688;2023-07-20T12:48:38;100147.16;;;42.71;19.67
75298;BME280;63896;45.990;18.688;2023-07-20T12:51:43;100148.31;;;41.69;21.22
75298;BME280;63896;45.990;18.688;2023-07-20T12:54:47;100144.81;;;41.65;21.07
75298;BME280;63896;45.990;18.688;2023-07-20T12:57:50;100142.34;;;42.55;20.57
75298;BME280;63896;45.990;18.688;2023-07-20T13:00:53;100139.09;;;41.53;20.63
75298;BME280;63896;45.990;18.688;2023-07-20T13:03:56;100138.44;;;41.06;21.31
75298;BME280;63896;45.990;18.688;2023-07-20T13:07:03;100146.84;;;40.32;21.81
75298;BME280;63896;45.990;18.688;2023-07-20T13:10:26;100133.22;;;39.20;23.75
75298;BME280;63896;45.990;18.688;2023-07-20T13:13:29;100137.13;;;39.26;22.94
75298;BME280;63896;45.990;18.688;2023-07-20T13:16:32;100144.56;;;40.27;22.32
75298;BME280;63896;45.990;18.688;2023-07-20T13:19:35;100127.53;;;40.72;22.08
75298;BME280;63896;45.990;18.688;2023-07-20T13:22:38;100136.94;;;40.31;21.68
75298;BME280;63896;45.990;18.688;2023-07-20T13:25:42;100119.34;;;40.38;22.56
75298;BME280;63896;45.990;18.688;2023-07-20T13:28:45;100125.97;;;40.44;22.43
75298;BME280;63896;45.990;18.688;2023-07-20T13:31:50;100123.56;;;39.96;22.75
75298;BME280;63896;45.990;18.688;2023-07-20T13:34:54;100123.03;;;38.18;24.47
75298;BME280;63896;45.990;18.688;2023-07-20T13:37:56;100121.28;;;37.79;25.70
75298;BME280;63896;45.990;18.688;2023-07-20T13:41:00;100125.00;;;37.44;25.36
75298;BME280;63896;45.990;18.688;2023-07-20T13:44:04;100120.78;;;36.87;25.76
75298;BME280;63896;45.990;18.688;2023-07-20T13:47:08;100126.22;;;35.84;27.29
75298;BME280;63896;45.990;18.688;2023-07-20T13:50:14;100120.81;;;36.34;26.13
75298;BME280;63896;45.990;18.688;2023-07-20T13:53:20;100122.78;;;36.61;25.58
75298;BME280;63896;45.990;18.688;2023-07-20T13:56:27;100124.34;;;36.27;26.32
75298;BME280;63896;45.990;18.688;2023-07-20T13:59:30;100121.97;;;36.82;25.78
75298;BME280;63896;45.990;18.688;2023-07-20T14:02:33;100124.69;;;36.08;25.71
75298;BME280;63896;45.990;18.688;2023-07-20T14:05:41;100120.00;;;36.15;25.98
75298;BME280;63896;45.990;18.688;2023-07-20T14:08:49;100120.13;;;35.40;26.87
75298;BME280;63896;45.990;18.688;2023-07-20T14:11:52;100115.13;;;34.94;27.99
75298;BME280;63896;45.990;18.688;2023-07-20T14:14:58;100114.56;;;35.25;27.16
75298;BME280;63896;45.990;18.688;2023-07-20T14:18:01;100109.44;;;35.34;27.68
75298;BME280;63896;45.990;18.688;2023-07-20T14:21:04;100113.03;;;35.42;26.93
75298;BME280;63896;45.990;18.688;2023-07-20T14:24:11;100113.03;;;35.42;26.27
75298;BME280;63896;45.990;18.688;2023-07-20T14:27:14;100116.91;;;35.30;26.50
75298;BME280;63896;45.990;18.688;2023-07-20T14:30:17;100110.50;;;35.12;26.59
75298;BME280;63896;45.990;18.688;2023-07-20T14:33:21;100120.19;;;34.85;26.99
75298;BME280;63896;45.990;18.688;2023-07-20T14:36:28;100112.44;;;34.54;26.71
75298;BME280;63896;45.990;18.688;2023-07-20T14:39:32;100117.59;;;34.55;27.49
75298;BME280;63896;45.990;18.688;2023-07-20T14:42:36;100119.06;;;34.93;26.76
75298;BME280;63896;45.990;18.688;2023-07-20T14:45:38;100118.88;;;34.68;27.12
75298;BME280;63896;45.990;18.688;2023-07-20T14:48:43;100119.69;;;34.72;26.22
75298;BME280;63896;45.990;18.688;2023-07-20T14:51:49;100122.25;;;34.48;26.93
75298;BME280;63896;45.990;18.688;2023-07-20T14:54:53;100124.66;;;34.12;26.21
75298;BME280;63896;45.990;18.688;2023-07-20T14:57:58;100117.63;;;34.59;26.56
75298;BME280;63896;45.990;18.688;2023-07-20T15:01:01;100109.88;;;34.71;26.11
75298;BME280;63896;45.990;18.688;2023-07-20T15:04:04;100114.09;;;34.62;26.42
75298;BME280;63896;45.990;18.688;2023-07-20T15:07:07;100109.13;;;34.34;26.94
75298;BME280;63896;45.990;18.688;2023-07-20T15:10:11;100115.88;;;33.99;27.98
75298;BME280;63896;45.990;18.688;2023-07-20T15:13:14;100111.78;;;33.53;27.18
75298;BME280;63896;45.990;18.688;2023-07-20T15:16:18;100111.69;;;33.46;27.42
75298;BME280;63896;45.990;18.688;2023-07-20T15:19:20;100118.66;;;33.36;28.82
75298;BME280;63896;45.990;18.688;2023-07-20T15:22:25;100117.34;;;33.27;26.92
75298;BME280;63896;45.990;18.688;2023-07-20T15:25:29;100120.84;;;32.97;28.43
75298;BME280;63896;45.990;18.688;2023-07-20T15:28:32;100114.31;;;32.34;28.51
75298;BME280;63896;45.990;18.688;2023-07-20T15:31:35;100118.41;;;32.43;30.07
75298;BME280;63896;45.990;18.688;2023-07-20T15:34:42;100121.56;;;32.45;29.82
75298;BME280;63896;45.990;18.688;2023-07-20T15:37:44;100111.50;;;32.30;30.53
75298;BME280;63896;45.990;18.688;2023-07-20T15:40:47;100123.72;;;31.72;30.23
75298;BME280;63896;45.990;18.688;2023-07-20T15:43:54;100124.31;;;31.81;30.66
75298;BME280;63896;45.990;18.688;2023-07-20T15:46:57;100116.81;;;31.58;31.27
75298;BME280;63896;45.990;18.688;2023-07-20T15:50:02;100110.88;;;31.56;31.03
75298;BME280;63896;45.990;18.688;2023-07-20T15:53:06;100115.78;;;31.47;30.86
75298;BME280;63896;45.990;18.688;2023-07-20T15:56:09;100120.31;;;31.59;30.60
75298;BME280;63896;45.990;18.688;2023-07-20T15:59:14;100109.31;;;31.40;30.91
75298;BME280;63896;45.990;18.688;2023-07-20T16:02:18;100108.97;;;30.71;31.83
75298;BME280;63896;45.990;18.688;2023-07-20T16:05:21;100110.72;;;30.80;32.33
75298;BME280;63896;45.990;18.688;2023-07-20T16:08:24;100106.94;;;30.68;32.29